sensor_id;sensor_type;location;lat;lon;timestamp;P1;durP1;ratioP1;P2;durP2;ratioP2
9117;SDS011;4594;50.994;7.126;2022-10-16T00:00:34;1.90;;;1.90;;
9117;SDS011;4594;50.994;7.126;2022-10-16T00:03:03;1.70;;;1.70;;
9117;SDS011;4594;50.994;7.126;2022-10-16T00:05:30;2.00;;;1.90;;
9117;SDS011;4594;50.994;7.126;2022-10-16T00:07:57;1.90;;;1.90;;
9117;SDS011;4594;50.994;7.126;2022-10-16T00:10:23;2.07;;;1.97;;
9117;SDS011;4594;50.994;7.126;2022-10-16T00:12:49;2.10;;;2.00;;
9117;SDS011;4594;50.994;7.126;2022-10-16T00:15:15;5.23;;;2.10;;
9117;SDS011;4594;50.994;7.126;2022-10-16T00:17:44;1.77;;;1.77;;
9117;SDS011;4594;50.994;7.126;2022-10-16T00:20:11;2.10;;;2.00;;
9117;SDS011;4594;50.994;7.126;2022-10-16T00:22:37;2.00;;;1.90;;
9117;SDS011;4594;50.994;7.126;2022-10-16T00:25:03;2.43;;;2.27;;
9117;SDS011;4594;50.994;7.126;2022-10-16T00:27:29;2.30;;;2.10;;
9117;SDS011;4594;50.994;7.126;2022-10-16T00:29:55;6.03;;;1.73;;
9117;SDS011;4594;50.994;7.126;2022-10-16T00:32:21;2.93;;;2.00;;
9117;SDS011;4594;50.994;7.126;2022-10-16T00:34:47;2.00;;;1.90;;
9117;SDS011;4594;50.994;7.126;2022-10-16T00:37:13;1.97;;;1.87;;
9117;SDS011;4594;50.994;7.126;2022-10-16T00:39:39;1.80;;;1.80;;
9117;SDS011;4594;50.994;7.126;2022-10-16T00:42:05;1.93;;;1.70;;
9117;SDS011;4594;50.994;7.126;2022-10-16T00:47:36;1.87;;;1.70;;
9117;SDS011;4594;50.994;7.126;2022-10-16T00:50:08;2.30;;;2.20;;
9117;SDS011;4594;50.994;7.126;2022-10-16T00:52:41;3.10;;;1.80;;
9117;SDS011;4594;50.994;7.126;2022-10-16T00:55:13;1.83;;;1.77;;
9117;SDS011;4594;50.994;7.126;2022-10-16T00:57:39;1.80;;;1.80;;
9117;SDS011;4594;50.994;7.126;2022-10-16T01:00:08;1.90;;;1.80;;
9117;SDS011;4594;50.994;7.126;2022-10-16T01:02:37;2.23;;;2.10;;
9117;SDS011;4594;50.994;7.126;2022-10-16T01:05:03;4.33;;;2.10;;
9117;SDS011;4594;50.994;7.126;2022-10-16T01:10:41;2.60;;;1.87;;
9117;SDS011;4594;50.994;7.126;2022-10-16T01:16:05;1.60;;;1.60;;
9117;SDS011;4594;50.994;7.126;2022-10-16T01:18:52;1.53;;;1.53;;
9117;SDS011;4594;50.994;7.126;2022-10-16T01:21:44;1.90;;;1.90;;
9117;SDS011;4594;50.994;7.126;2022-10-16T01:29:37;1.60;;;1.60;;
9117;SDS011;4594;50.994;7.126;2022-10-16T01:32:14;3.33;;;1.80;;
9117;SDS011;4594;50.994;7.126;2022-10-16T01:35:09;1.80;;;1.77;;
9117;SDS011;4594;50.994;7.126;2022-10-16T01:37:45;1.63;;;1.53;;
9117;SDS011;4594;50.994;7.126;2022-10-16T01:40:19;1.93;;;1.70;;
9117;SDS011;4594;50.994;7.126;2022-10-16T01:42:56;1.60;;;1.60;;
9117;SDS011;4594;50.994;7.126;2022-10-16T01:45:37;2.40;;;1.50;;
9117;SDS011;4594;50.994;7.126;2022-10-16T01:48:05;1.80;;;1.70;;
9117;SDS011;4594;50.994;7.126;2022-10-16T01:50:35;1.90;;;1.80;;
9117;SDS011;4594;50.994;7.126;2022-10-16T01:53:06;1.67;;;1.67;;
9117;SDS011;4594;50.994;7.126;2022-10-16T01:55:38;1.70;;;1.70;;
9117;SDS011;4594;50.994;7.126;2022-10-16T01:58:10;4.10;;;2.00;;
9117;SDS011;4594;50.994;7.126;2022-10-16T02:00:39;1.90;;;1.80;;
9117;SDS011;4594;50.994;7.126;2022-10-16T02:03:10;2.63;;;1.60;;
9117;SDS011;4594;50.994;7.126;2022-10-16T02:05:46;3.00;;;1.70;;
9117;SDS011;4594;50.994;7.126;2022-10-16T02:08:17;1.70;;;1.60;;
9117;SDS011;4594;50.994;7.126;2022-10-16T02:10:44;2.00;;;1.60;;
9117;SDS011;4594;50.994;7.126;2022-10-16T02:16:06;1.70;;;1.60;;
9117;SDS011;4594;50.994;7.126;2022-10-16T02:18:32;1.67;;;1.60;;
9117;SDS011;4594;50.994;7.126;2022-10-16T02:24:11;1.80;;;1.70;;
9117;SDS011;4594;50.994;7.126;2022-10-16T02:27:03;1.50;;;1.50;;
9117;SDS011;4594;50.994;7.126;2022-10-16T02:29:59;1.60;;;1.50;;
9117;SDS011;4594;50.994;7.126;2022-10-16T02:32:34;8.17;;;1.80;;
9117;SDS011;4594;50.994;7.126;2022-10-16T02:35:06;1.63;;;1.63;;
9117;SDS011;4594;50.994;7.126;2022-10-16T02:37:34;2.40;;;1.80;;
9117;SDS011;4594;50.994;7.126;2022-10-16T02:40:01;1.93;;;1.80;;
9117;SDS011;4594;50.994;7.126;2022-10-16T02:42:32;1.50;;;1.50;;
9117;SDS011;4594;50.994;7.126;2022-10-16T02:45:01;1.50;;;1.50;;
9117;SDS011;4594;50.994;7.126;2022-10-16T02:47:28;1.50;;;1.50;;
9117;SDS011;4594;50.994;7.126;2022-10-16T02:49:54;1.60;;;1.60;;
9117;SDS011;4594;50.994;7.126;2022-10-16T02:52:20;1.33;;;1.33;;
9117;SDS011;4594;50.994;7.126;2022-10-16T02:54:45;6.00;;;1.53;;
9117;SDS011;4594;50.994;7.126;2022-10-16T02:57:11;1.80;;;1.70;;
9117;SDS011;4594;50.994;7.126;2022-10-16T02:59:37;1.57;;;1.57;;
9117;SDS011;4594;50.994;7.126;2022-10-16T03:02:03;1.33;;;1.33;;
9117;SDS011;4594;50.994;7.126;2022-10-16T03:04:28;2.20;;;1.80;;
9117;SDS011;4594;50.994;7.126;2022-10-16T03:06:54;1.57;;;1.57;;
9117;SDS011;4594;50.994;7.126;2022-10-16T03:09:20;1.67;;;1.57;;
9117;SDS011;4594;50.994;7.126;2022-10-16T03:11:45;3.03;;;1.50;;
9117;SDS011;4594;50.994;7.126;2022-10-16T03:14:11;1.30;;;1.27;;
9117;SDS011;4594;50.994;7.126;2022-10-16T03:16:37;1.60;;;1.60;;
9117;SDS011;4594;50.994;7.126;2022-10-16T03:19:02;1.57;;;1.47;;
9117;SDS011;4594;50.994;7.126;2022-10-16T03:21:28;1.20;;;1.20;;
9117;SDS011;4594;50.994;7.126;2022-10-16T03:23:54;1.60;;;1.50;;
9117;SDS011;4594;50.994;7.126;2022-10-16T03:26:20;1.63;;;1.53;;
9117;SDS011;4594;50.994;7.126;2022-10-16T03:28:46;1.50;;;1.50;;
9117;SDS011;4594;50.994;7.126;2022-10-16T03:31:11;1.50;;;1.50;;
9117;SDS011;4594;50.994;7.126;2022-10-16T03:33:37;1.50;;;1.40;;
9117;SDS011;4594;50.994;7.126;2022-10-16T03:36:03;1.93;;;1.83;;
9117;SDS011;4594;50.994;7.126;2022-10-16T03:38:29;4.33;;;1.53;;
9117;SDS011;4594;50.994;7.126;2022-10-16T03:40:54;1.50;;;1.50;;
9117;SDS011;4594;50.994;7.126;2022-10-16T03:43:20;2.30;;;1.73;;
9117;SDS011;4594;50.994;7.126;2022-10-16T03:45:46;1.70;;;1.60;;
9117;SDS011;4594;50.994;7.126;2022-10-16T03:48:11;1.53;;;1.53;;
9117;SDS011;4594;50.994;7.126;2022-10-16T03:50:37;1.40;;;1.40;;
9117;SDS011;4594;50.994;7.126;2022-10-16T03:53:03;1.40;;;1.40;;
9117;SDS011;4594;50.994;7.126;2022-10-16T03:55:29;1.60;;;1.57;;
9117;SDS011;4594;50.994;7.126;2022-10-16T03:57:54;1.60;;;1.60;;
9117;SDS011;4594;50.994;7.126;2022-10-16T04:00:20;1.70;;;1.60;;
9117;SDS011;4594;50.994;7.126;2022-10-16T04:02:46;3.40;;;1.50;;
9117;SDS011;4594;50.994;7.126;2022-10-16T04:05:11;1.77;;;1.67;;
9117;SDS011;4594;50.994;7.126;2022-10-16T04:07:37;1.40;;;1.40;;
9117;SDS011;4594;50.994;7.126;2022-10-16T04:10:03;1.20;;;1.20;;
9117;SDS011;4594;50.994;7.126;2022-10-16T04:12:29;1.53;;;1.50;;
9117;SDS011;4594;50.994;7.126;2022-10-16T04:14:55;1.70;;;1.70;;
9117;SDS011;4594;50.994;7.126;2022-10-16T04:17:21;1.73;;;1.30;;
9117;SDS011;4594;50.994;7.126;2022-10-16T04:19:46;1.67;;;1.57;;
9117;SDS011;4594;50.994;7.126;2022-10-16T04:22:12;1.27;;;1.27;;
9117;SDS011;4594;50.994;7.126;2022-10-16T04:24:38;1.33;;;1.33;;
9117;SDS011;4594;50.994;7.126;2022-10-16T04:27:04;1.40;;;1.40;;
9117;SDS011;4594;50.994;7.126;2022-10-16T04:29:29;3.43;;;1.20;;
9117;SDS011;4594;50.994;7.126;2022-10-16T04:31:55;2.17;;;1.80;;
9117;SDS011;4594;50.994;7.126;2022-10-16T04:34:21;1.50;;;1.40;;
9117;SDS011;4594;50.994;7.126;2022-10-16T04:36:47;1.30;;;1.30;;
9117;SDS011;4594;50.994;7.126;2022-10-16T04:39:14;1.80;;;1.70;;
9117;SDS011;4594;50.994;7.126;2022-10-16T04:41:40;1.40;;;1.40;;
9117;SDS011;4594;50.994;7.126;2022-10-16T04:44:06;1.60;;;1.50;;
9117;SDS011;4594;50.994;7.126;2022-10-16T04:46:32;1.53;;;1.33;;
9117;SDS011;4594;50.994;7.126;2022-10-16T04:48:57;1.40;;;1.40;;
9117;SDS011;4594;50.994;7.126;2022-10-16T04:51:23;3.50;;;2.07;;
9117;SDS011;4594;50.994;7.126;2022-10-16T04:53:50;1.40;;;1.30;;
9117;SDS011;4594;50.994;7.126;2022-10-16T04:56:16;1.80;;;1.73;;
9117;SDS011;4594;50.994;7.126;2022-10-16T04:58:42;1.63;;;1.50;;
9117;SDS011;4594;50.994;7.126;2022-10-16T05:01:07;11.43;;;1.60;;
9117;SDS011;4594;50.994;7.126;2022-10-16T05:03:33;1.87;;;1.70;;
9117;SDS011;4594;50.994;7.126;2022-10-16T05:05:59;1.60;;;1.60;;
9117;SDS011;4594;50.994;7.126;2022-10-16T05:08:25;1.60;;;1.50;;
9117;SDS011;4594;50.994;7.126;2022-10-16T05:10:50;1.70;;;1.70;;
9117;SDS011;4594;50.994;7.126;2022-10-16T05:13:16;2.10;;;1.40;;
9117;SDS011;4594;50.994;7.126;2022-10-16T05:15:42;1.40;;;1.40;;
9117;SDS011;4594;50.994;7.126;2022-10-16T05:18:12;2.20;;;1.97;;
9117;SDS011;4594;50.994;7.126;2022-10-16T05:20:37;1.40;;;1.40;;
9117;SDS011;4594;50.994;7.126;2022-10-16T05:23:03;1.50;;;1.50;;
9117;SDS011;4594;50.994;7.126;2022-10-16T05:25:28;2.33;;;1.60;;
9117;SDS011;4594;50.994;7.126;2022-10-16T05:27:54;1.77;;;1.63;;
9117;SDS011;4594;50.994;7.126;2022-10-16T05:30:20;1.70;;;1.60;;
9117;SDS011;4594;50.994;7.126;2022-10-16T05:32:49;1.47;;;1.40;;
9117;SDS011;4594;50.994;7.126;2022-10-16T05:35:16;1.53;;;1.23;;
9117;SDS011;4594;50.994;7.126;2022-10-16T05:37:43;1.37;;;1.37;;
9117;SDS011;4594;50.994;7.126;2022-10-16T05:40:09;1.40;;;1.30;;
9117;SDS011;4594;50.994;7.126;2022-10-16T05:42:36;1.60;;;1.50;;
9117;SDS011;4594;50.994;7.126;2022-10-16T05:45:03;1.30;;;1.30;;
9117;SDS011;4594;50.994;7.126;2022-10-16T05:47:30;1.43;;;1.43;;
9117;SDS011;4594;50.994;7.126;2022-10-16T05:49:56;2.33;;;1.47;;
9117;SDS011;4594;50.994;7.126;2022-10-16T05:52:21;1.40;;;1.40;;
9117;SDS011;4594;50.994;7.126;2022-10-16T05:54:47;1.30;;;1.30;;
9117;SDS011;4594;50.994;7.126;2022-10-16T05:57:13;3.80;;;1.33;;
9117;SDS011;4594;50.994;7.126;2022-10-16T05:59:38;2.93;;;1.40;;
9117;SDS011;4594;50.994;7.126;2022-10-16T06:02:04;1.40;;;1.40;;
9117;SDS011;4594;50.994;7.126;2022-10-16T06:04:30;1.27;;;1.27;;
9117;SDS011;4594;50.994;7.126;2022-10-16T06:06:57;1.70;;;1.60;;
9117;SDS011;4594;50.994;7.126;2022-10-16T06:09:25;1.77;;;1.63;;
9117;SDS011;4594;50.994;7.126;2022-10-16T06:11:51;1.30;;;1.30;;
9117;SDS011;4594;50.994;7.126;2022-10-16T06:14:16;1.40;;;1.40;;
9117;SDS011;4594;50.994;7.126;2022-10-16T06:16:42;1.60;;;1.60;;
9117;SDS011;4594;50.994;7.126;2022-10-16T06:19:08;1.50;;;1.50;;
9117;SDS011;4594;50.994;7.126;2022-10-16T06:21:34;1.70;;;1.60;;
9117;SDS011;4594;50.994;7.126;2022-10-16T06:24:00;1.73;;;1.47;;
9117;SDS011;4594;50.994;7.126;2022-10-16T06:26:27;1.60;;;1.60;;
9117;SDS011;4594;50.994;7.126;2022-10-16T06:28:55;1.47;;;1.40;;
9117;SDS011;4594;50.994;7.126;2022-10-16T06:31:24;2.70;;;1.30;;
9117;SDS011;4594;50.994;7.126;2022-10-16T06:33:55;1.60;;;1.60;;
9117;SDS011;4594;50.994;7.126;2022-10-16T06:36:22;1.70;;;1.60;;
9117;SDS011;4594;50.994;7.126;2022-10-16T06:38:49;1.70;;;1.60;;
9117;SDS011;4594;50.994;7.126;2022-10-16T06:41:17;1.73;;;1.63;;
9117;SDS011;4594;50.994;7.126;2022-10-16T06:43:45;1.80;;;1.80;;
9117;SDS011;4594;50.994;7.126;2022-10-16T06:46:12;1.60;;;1.60;;
9117;SDS011;4594;50.994;7.126;2022-10-16T06:48:41;1.50;;;1.50;;
9117;SDS011;4594;50.994;7.126;2022-10-16T06:53:40;5.43;;;1.70;;
9117;SDS011;4594;50.994;7.126;2022-10-16T06:56:16;1.53;;;1.50;;
9117;SDS011;4594;50.994;7.126;2022-10-16T06:58:50;2.00;;;1.80;;
9117;SDS011;4594;50.994;7.126;2022-10-16T07:01:17;1.60;;;1.43;;
9117;SDS011;4594;50.994;7.126;2022-10-16T07:03:46;4.37;;;1.50;;
9117;SDS011;4594;50.994;7.126;2022-10-16T07:06:14;1.50;;;1.50;;
9117;SDS011;4594;50.994;7.126;2022-10-16T07:08:42;4.00;;;1.47;;
9117;SDS011;4594;50.994;7.126;2022-10-16T07:11:12;2.77;;;1.87;;
9117;SDS011;4594;50.994;7.126;2022-10-16T07:13:41;1.37;;;1.37;;
9117;SDS011;4594;50.994;7.126;2022-10-16T07:16:10;1.40;;;1.40;;
9117;SDS011;4594;50.994;7.126;2022-10-16T07:18:39;1.30;;;1.30;;
9117;SDS011;4594;50.994;7.126;2022-10-16T07:21:08;1.53;;;1.40;;
9117;SDS011;4594;50.994;7.126;2022-10-16T07:23:39;1.73;;;1.60;;
9117;SDS011;4594;50.994;7.126;2022-10-16T07:26:06;2.27;;;1.50;;
9117;SDS011;4594;50.994;7.126;2022-10-16T07:28:33;1.53;;;1.43;;
9117;SDS011;4594;50.994;7.126;2022-10-16T07:31:00;1.50;;;1.40;;
9117;SDS011;4594;50.994;7.126;2022-10-16T07:33:36;1.53;;;1.43;;
9117;SDS011;4594;50.994;7.126;2022-10-16T07:36:03;1.30;;;1.20;;
9117;SDS011;4594;50.994;7.126;2022-10-16T07:38:30;2.33;;;1.23;;
9117;SDS011;4594;50.994;7.126;2022-10-16T07:40:56;1.30;;;1.30;;
9117;SDS011;4594;50.994;7.126;2022-10-16T07:43:26;3.37;;;1.30;;
9117;SDS011;4594;50.994;7.126;2022-10-16T07:45:53;1.40;;;1.27;;
9117;SDS011;4594;50.994;7.126;2022-10-16T07:48:20;1.40;;;1.40;;
9117;SDS011;4594;50.994;7.126;2022-10-16T07:50:48;1.10;;;1.10;;
9117;SDS011;4594;50.994;7.126;2022-10-16T07:53:14;1.80;;;1.30;;
9117;SDS011;4594;50.994;7.126;2022-10-16T07:55:40;1.50;;;1.50;;
9117;SDS011;4594;50.994;7.126;2022-10-16T07:58:06;1.30;;;1.30;;
9117;SDS011;4594;50.994;7.126;2022-10-16T08:00:32;1.40;;;1.30;;
9117;SDS011;4594;50.994;7.126;2022-10-16T08:02:59;1.30;;;1.20;;
9117;SDS011;4594;50.994;7.126;2022-10-16T08:05:28;1.13;;;1.13;;
9117;SDS011;4594;50.994;7.126;2022-10-16T08:07:56;1.03;;;1.03;;
9117;SDS011;4594;50.994;7.126;2022-10-16T08:10:22;1.17;;;1.17;;
9117;SDS011;4594;50.994;7.126;2022-10-16T08:12:51;2.13;;;1.00;;
9117;SDS011;4594;50.994;7.126;2022-10-16T08:15:18;2.47;;;1.00;;
9117;SDS011;4594;50.994;7.126;2022-10-16T08:17:53;0.90;;;0.90;;
9117;SDS011;4594;50.994;7.126;2022-10-16T08:20:25;1.23;;;1.20;;
9117;SDS011;4594;50.994;7.126;2022-10-16T08:22:52;0.77;;;0.77;;
9117;SDS011;4594;50.994;7.126;2022-10-16T08:25:19;6.83;;;1.00;;
9117;SDS011;4594;50.994;7.126;2022-10-16T08:27:46;0.77;;;0.67;;
9117;SDS011;4594;50.994;7.126;2022-10-16T08:30:12;0.50;;;0.50;;
9117;SDS011;4594;50.994;7.126;2022-10-16T08:32:38;0.80;;;0.80;;
9117;SDS011;4594;50.994;7.126;2022-10-16T08:35:06;0.70;;;0.70;;
9117;SDS011;4594;50.994;7.126;2022-10-16T08:37:34;2.67;;;0.60;;
9117;SDS011;4594;50.994;7.126;2022-10-16T08:40:00;0.53;;;0.53;;
9117;SDS011;4594;50.994;7.126;2022-10-16T08:42:35;0.50;;;0.50;;
9117;SDS011;4594;50.994;7.126;2022-10-16T08:51:15;0.60;;;0.60;;
9117;SDS011;4594;50.994;7.126;2022-10-16T08:54:01;0.37;;;0.37;;
9117;SDS011;4594;50.994;7.126;2022-10-16T08:56:30;0.50;;;0.50;;
9117;SDS011;4594;50.994;7.126;2022-10-16T08:58:58;0.53;;;0.53;;
9117;SDS011;4594;50.994;7.126;2022-10-16T09:01:25;0.87;;;0.57;;
9117;SDS011;4594;50.994;7.126;2022-10-16T09:07:01;0.53;;;0.53;;
9117;SDS011;4594;50.994;7.126;2022-10-16T09:09:49;0.77;;;0.60;;
9117;SDS011;4594;50.994;7.126;2022-10-16T09:12:43;0.30;;;0.30;;
9117;SDS011;4594;50.994;7.126;2022-10-16T09:15:49;0.40;;;0.40;;
9117;SDS011;4594;50.994;7.126;2022-10-16T09:18:44;0.20;;;0.20;;
9117;SDS011;4594;50.994;7.126;2022-10-16T09:21:47;0.77;;;0.40;;
9117;SDS011;4594;50.994;7.126;2022-10-16T09:26:42;0.83;;;0.50;;
9117;SDS011;4594;50.994;7.126;2022-10-16T09:29:11;2.87;;;0.53;;
9117;SDS011;4594;50.994;7.126;2022-10-16T09:31:39;3.07;;;0.50;;
9117;SDS011;4594;50.994;7.126;2022-10-16T09:34:06;1.23;;;0.60;;
9117;SDS011;4594;50.994;7.126;2022-10-16T09:36:44;0.20;;;0.20;;
9117;SDS011;4594;50.994;7.126;2022-10-16T09:39:11;0.40;;;0.40;;
9117;SDS011;4594;50.994;7.126;2022-10-16T09:41:38;2.80;;;0.73;;
9117;SDS011;4594;50.994;7.126;2022-10-16T09:44:27;0.40;;;0.40;;
9117;SDS011;4594;50.994;7.126;2022-10-16T09:47:11;0.40;;;0.40;;
9117;SDS011;4594;50.994;7.126;2022-10-16T09:49:56;0.47;;;0.20;;
9117;SDS011;4594;50.994;7.126;2022-10-16T09:52:45;0.60;;;0.27;;
9117;SDS011;4594;50.994;7.126;2022-10-16T09:55:15;0.73;;;0.50;;
9117;SDS011;4594;50.994;7.126;2022-10-16T09:57:52;3.27;;;1.00;;
9117;SDS011;4594;50.994;7.126;2022-10-16T10:00:20;1.43;;;1.17;;
9117;SDS011;4594;50.994;7.126;2022-10-16T10:02:48;1.13;;;1.10;;
9117;SDS011;4594;50.994;7.126;2022-10-16T10:05:18;2.80;;;1.50;;
9117;SDS011;4594;50.994;7.126;2022-10-16T10:07:58;3.30;;;1.20;;
9117;SDS011;4594;50.994;7.126;2022-10-16T10:10:31;0.70;;;0.70;;
9117;SDS011;4594;50.994;7.126;2022-10-16T10:12:59;0.80;;;0.80;;
9117;SDS011;4594;50.994;7.126;2022-10-16T10:15:25;0.90;;;0.90;;
9117;SDS011;4594;50.994;7.126;2022-10-16T10:17:59;0.90;;;0.90;;
9117;SDS011;4594;50.994;7.126;2022-10-16T10:20:32;1.37;;;0.53;;
9117;SDS011;4594;50.994;7.126;2022-10-16T10:23:22;0.40;;;0.40;;
9117;SDS011;4594;50.994;7.126;2022-10-16T10:28:42;2.80;;;1.03;;
9117;SDS011;4594;50.994;7.126;2022-10-16T10:31:21;0.70;;;0.70;;
9117;SDS011;4594;50.994;7.126;2022-10-16T10:37:24;0.63;;;0.50;;
9117;SDS011;4594;50.994;7.126;2022-10-16T10:40:04;2.03;;;0.77;;
9117;SDS011;4594;50.994;7.126;2022-10-16T10:43:15;0.60;;;0.60;;
9117;SDS011;4594;50.994;7.126;2022-10-16T10:46:03;0.70;;;0.70;;
9117;SDS011;4594;50.994;7.126;2022-10-16T10:54:22;0.97;;;0.60;;
9117;SDS011;4594;50.994;7.126;2022-10-16T10:57:10;1.17;;;0.40;;
9117;SDS011;4594;50.994;7.126;2022-10-16T10:59:54;0.50;;;0.50;;
9117;SDS011;4594;50.994;7.126;2022-10-16T11:02:50;1.90;;;0.60;;
9117;SDS011;4594;50.994;7.126;2022-10-16T11:05:49;0.40;;;0.40;;
9117;SDS011;4594;50.994;7.126;2022-10-16T11:08:38;0.70;;;0.70;;
9117;SDS011;4594;50.994;7.126;2022-10-16T11:11:32;0.90;;;0.90;;
9117;SDS011;4594;50.994;7.126;2022-10-16T11:16:39;1.03;;;1.03;;
9117;SDS011;4594;50.994;7.126;2022-10-16T11:22:24;2.10;;;1.03;;
9117;SDS011;4594;50.994;7.126;2022-10-16T11:25:45;0.70;;;0.70;;
9117;SDS011;4594;50.994;7.126;2022-10-16T11:28:10;0.67;;;0.67;;
9117;SDS011;4594;50.994;7.126;2022-10-16T11:30:53;3.07;;;1.20;;
9117;SDS011;4594;50.994;7.126;2022-10-16T11:33:54;1.80;;;0.70;;
9117;SDS011;4594;50.994;7.126;2022-10-16T11:36:47;0.73;;;0.73;;
9117;SDS011;4594;50.994;7.126;2022-10-16T11:39:26;0.60;;;0.60;;
9117;SDS011;4594;50.994;7.126;2022-10-16T11:49:46;2.10;;;1.00;;
9117;SDS011;4594;50.994;7.126;2022-10-16T11:52:22;0.60;;;0.60;;
9117;SDS011;4594;50.994;7.126;2022-10-16T11:58:05;2.60;;;1.20;;
9117;SDS011;4594;50.994;7.126;2022-10-16T12:00:56;0.90;;;0.70;;
9117;SDS011;4594;50.994;7.126;2022-10-16T12:04:36;0.60;;;0.60;;
9117;SDS011;4594;50.994;7.126;2022-10-16T12:06:44;2.43;;;2.23;;
9117;SDS011;4594;50.994;7.126;2022-10-16T12:09:27;1.80;;;1.70;;
9117;SDS011;4594;50.994;7.126;2022-10-16T12:11:57;2.80;;;1.30;;
9117;SDS011;4594;50.994;7.126;2022-10-16T12:17:22;1.60;;;1.50;;
9117;SDS011;4594;50.994;7.126;2022-10-16T12:22:49;1.00;;;1.00;;
9117;SDS011;4594;50.994;7.126;2022-10-16T12:27:53;2.20;;;0.73;;
9117;SDS011;4594;50.994;7.126;2022-10-16T12:30:23;1.27;;;1.00;;
9117;SDS011;4594;50.994;7.126;2022-10-16T12:33:02;1.20;;;1.20;;
9117;SDS011;4594;50.994;7.126;2022-10-16T12:35:34;2.00;;;1.10;;
9117;SDS011;4594;50.994;7.126;2022-10-16T12:38:19;1.10;;;1.10;;
9117;SDS011;4594;50.994;7.126;2022-10-16T12:40:55;2.53;;;2.13;;
9117;SDS011;4594;50.994;7.126;2022-10-16T12:48:38;1.93;;;1.83;;
9117;SDS011;4594;50.994;7.126;2022-10-16T12:51:21;1.93;;;1.80;;
9117;SDS011;4594;50.994;7.126;2022-10-16T13:06:39;2.10;;;2.00;;
9117;SDS011;4594;50.994;7.126;2022-10-16T13:09:20;1.63;;;1.50;;
9117;SDS011;4594;50.994;7.126;2022-10-16T13:15:21;1.70;;;1.50;;
9117;SDS011;4594;50.994;7.126;2022-10-16T13:24:02;1.90;;;1.80;;
9117;SDS011;4594;50.994;7.126;2022-10-16T13:30:07;1.10;;;1.10;;
9117;SDS011;4594;50.994;7.126;2022-10-16T13:32:43;0.80;;;0.80;;
9117;SDS011;4594;50.994;7.126;2022-10-16T13:35:26;0.70;;;0.70;;
9117;SDS011;4594;50.994;7.126;2022-10-16T13:38:05;0.70;;;0.70;;
9117;SDS011;4594;50.994;7.126;2022-10-16T13:40:52;0.87;;;0.87;;
9117;SDS011;4594;50.994;7.126;2022-10-16T13:43:40;0.67;;;0.67;;
9117;SDS011;4594;50.994;7.126;2022-10-16T13:46:21;0.87;;;0.73;;
9117;SDS011;4594;50.994;7.126;2022-10-16T13:51:26;0.63;;;0.63;;
9117;SDS011;4594;50.994;7.126;2022-10-16T13:53:55;6.63;;;0.87;;
9117;SDS011;4594;50.994;7.126;2022-10-16T13:56:22;0.80;;;0.80;;
9117;SDS011;4594;50.994;7.126;2022-10-16T13:59:04;0.63;;;0.63;;
9117;SDS011;4594;50.994;7.126;2022-10-16T14:01:47;0.80;;;0.80;;
9117;SDS011;4594;50.994;7.126;2022-10-16T14:04:16;0.80;;;0.80;;
9117;SDS011;4594;50.994;7.126;2022-10-16T14:06:43;1.30;;;0.80;;
9117;SDS011;4594;50.994;7.126;2022-10-16T14:09:16;0.60;;;0.60;;
9117;SDS011;4594;50.994;7.126;2022-10-16T14:12:07;0.90;;;0.90;;
9117;SDS011;4594;50.994;7.126;2022-10-16T14:14:43;0.83;;;0.83;;
9117;SDS011;4594;50.994;7.126;2022-10-16T14:17:18;1.00;;;0.97;;
9117;SDS011;4594;50.994;7.126;2022-10-16T14:19:50;0.87;;;0.80;;
9117;SDS011;4594;50.994;7.126;2022-10-16T14:22:30;0.90;;;0.90;;
9117;SDS011;4594;50.994;7.126;2022-10-16T14:24:59;0.90;;;0.83;;
9117;SDS011;4594;50.994;7.126;2022-10-16T14:27:32;0.70;;;0.70;;
9117;SDS011;4594;50.994;7.126;2022-10-16T14:30:17;0.70;;;0.70;;
9117;SDS011;4594;50.994;7.126;2022-10-16T14:33:02;0.90;;;0.90;;
9117;SDS011;4594;50.994;7.126;2022-10-16T14:35:35;1.67;;;1.03;;
9117;SDS011;4594;50.994;7.126;2022-10-16T14:38:05;0.73;;;0.73;;
9117;SDS011;4594;50.994;7.126;2022-10-16T14:40:46;1.10;;;1.00;;
9117;SDS011;4594;50.994;7.126;2022-10-16T14:43:14;0.90;;;0.90;;
9117;SDS011;4594;50.994;7.126;2022-10-16T14:45:51;1.10;;;1.10;;
9117;SDS011;4594;50.994;7.126;2022-10-16T14:48:20;0.90;;;0.90;;
9117;SDS011;4594;50.994;7.126;2022-10-16T14:50:47;1.27;;;1.17;;
9117;SDS011;4594;50.994;7.126;2022-10-16T14:53:13;1.07;;;0.97;;
9117;SDS011;4594;50.994;7.126;2022-10-16T14:55:40;0.80;;;0.80;;
9117;SDS011;4594;50.994;7.126;2022-10-16T14:58:24;1.07;;;1.07;;
9117;SDS011;4594;50.994;7.126;2022-10-16T15:00:51;3.43;;;1.37;;
9117;SDS011;4594;50.994;7.126;2022-10-16T15:03:17;1.00;;;1.00;;
9117;SDS011;4594;50.994;7.126;2022-10-16T15:05:42;3.47;;;1.40;;
9117;SDS011;4594;50.994;7.126;2022-10-16T15:08:08;1.40;;;1.30;;
9117;SDS011;4594;50.994;7.126;2022-10-16T15:10:36;1.30;;;1.20;;
9117;SDS011;4594;50.994;7.126;2022-10-16T15:13:08;2.07;;;1.00;;
9117;SDS011;4594;50.994;7.126;2022-10-16T15:15:38;1.23;;;1.07;;
9117;SDS011;4594;50.994;7.126;2022-10-16T15:18:10;1.20;;;1.20;;
9117;SDS011;4594;50.994;7.126;2022-10-16T15:20:39;1.00;;;1.00;;
9117;SDS011;4594;50.994;7.126;2022-10-16T15:23:23;0.93;;;0.93;;
9117;SDS011;4594;50.994;7.126;2022-10-16T15:25:52;6.03;;;1.20;;
9117;SDS011;4594;50.994;7.126;2022-10-16T15:28:21;1.20;;;1.13;;
9117;SDS011;4594;50.994;7.126;2022-10-16T15:30:49;1.97;;;1.00;;
9117;SDS011;4594;50.994;7.126;2022-10-16T15:33:19;1.87;;;1.20;;
9117;SDS011;4594;50.994;7.126;2022-10-16T15:35:49;1.37;;;1.27;;
9117;SDS011;4594;50.994;7.126;2022-10-16T15:38:17;1.23;;;1.23;;
9117;SDS011;4594;50.994;7.126;2022-10-16T15:40:46;1.50;;;1.40;;
9117;SDS011;4594;50.994;7.126;2022-10-16T15:43:13;1.50;;;1.40;;
9117;SDS011;4594;50.994;7.126;2022-10-16T15:45:39;1.27;;;1.27;;
9117;SDS011;4594;50.994;7.126;2022-10-16T15:48:05;2.40;;;1.60;;
9117;SDS011;4594;50.994;7.126;2022-10-16T15:50:36;1.20;;;1.20;;
9117;SDS011;4594;50.994;7.126;2022-10-16T15:53:03;1.30;;;1.30;;
9117;SDS011;4594;50.994;7.126;2022-10-16T15:55:29;1.50;;;1.40;;
9117;SDS011;4594;50.994;7.126;2022-10-16T15:57:55;1.53;;;1.37;;
9117;SDS011;4594;50.994;7.126;2022-10-16T16:00:20;2.50;;;1.40;;
9117;SDS011;4594;50.994;7.126;2022-10-16T16:02:50;3.97;;;1.33;;
9117;SDS011;4594;50.994;7.126;2022-10-16T16:05:18;2.70;;;1.40;;
9117;SDS011;4594;50.994;7.126;2022-10-16T16:07:45;1.53;;;1.50;;
9117;SDS011;4594;50.994;7.126;2022-10-16T16:10:12;2.67;;;1.30;;
9117;SDS011;4594;50.994;7.126;2022-10-16T16:12:38;4.00;;;1.60;;
9117;SDS011;4594;50.994;7.126;2022-10-16T16:15:05;1.60;;;1.50;;
9117;SDS011;4594;50.994;7.126;2022-10-16T16:17:33;2.03;;;1.57;;
9117;SDS011;4594;50.994;7.126;2022-10-16T16:19:59;1.30;;;1.30;;
9117;SDS011;4594;50.994;7.126;2022-10-16T16:22:26;1.50;;;1.40;;
9117;SDS011;4594;50.994;7.126;2022-10-16T16:24:52;4.67;;;1.37;;
9117;SDS011;4594;50.994;7.126;2022-10-16T16:27:18;1.50;;;1.37;;
9117;SDS011;4594;50.994;7.126;2022-10-16T16:29:44;1.27;;;1.20;;
9117;SDS011;4594;50.994;7.126;2022-10-16T16:32:11;1.37;;;1.37;;
9117;SDS011;4594;50.994;7.126;2022-10-16T16:34:37;1.40;;;1.40;;
9117;SDS011;4594;50.994;7.126;2022-10-16T16:37:03;1.47;;;1.47;;
9117;SDS011;4594;50.994;7.126;2022-10-16T16:39:28;1.50;;;1.40;;
9117;SDS011;4594;50.994;7.126;2022-10-16T16:41:55;3.03;;;1.70;;
9117;SDS011;4594;50.994;7.126;2022-10-16T16:44:23;1.20;;;1.20;;
9117;SDS011;4594;50.994;7.126;2022-10-16T16:46:50;1.30;;;1.20;;
9117;SDS011;4594;50.994;7.126;2022-10-16T16:49:16;1.43;;;1.33;;
9117;SDS011;4594;50.994;7.126;2022-10-16T16:51:42;1.63;;;1.30;;
9117;SDS011;4594;50.994;7.126;2022-10-16T16:54:08;2.13;;;1.37;;
9117;SDS011;4594;50.994;7.126;2022-10-16T16:56:36;1.33;;;1.33;;
9117;SDS011;4594;50.994;7.126;2022-10-16T16:59:02;1.27;;;1.27;;
9117;SDS011;4594;50.994;7.126;2022-10-16T17:01:29;1.27;;;1.27;;
9117;SDS011;4594;50.994;7.126;2022-10-16T17:03:56;1.37;;;1.30;;
9117;SDS011;4594;50.994;7.126;2022-10-16T17:06:26;1.63;;;1.30;;
9117;SDS011;4594;50.994;7.126;2022-10-16T17:08:56;2.33;;;1.20;;
9117;SDS011;4594;50.994;7.126;2022-10-16T17:11:25;1.10;;;1.10;;
9117;SDS011;4594;50.994;7.126;2022-10-16T17:13:53;6.53;;;1.50;;
9117;SDS011;4594;50.994;7.126;2022-10-16T17:16:25;1.23;;;1.23;;
9117;SDS011;4594;50.994;7.126;2022-10-16T17:19:01;1.20;;;1.20;;
9117;SDS011;4594;50.994;7.126;2022-10-16T17:21:33;1.70;;;1.00;;
9117;SDS011;4594;50.994;7.126;2022-10-16T17:24:00;1.07;;;1.07;;